sensor_id;sensor_type;location;lat;lon;timestamp;temperature;humidity
285;DHT22;127;48.770;9.212;2023-08-21T00:00:50;24.40;99.90
285;DHT22;127;48.770;9.212;2023-08-21T00:03:19;24.40;99.90
285;DHT22;127;48.770;9.212;2023-08-21T00:05:51;24.50;99.90
285;DHT22;127;48.770;9.212;2023-08-21T00:08:19;24.50;99.90
285;DHT22;127;48.770;9.212;2023-08-21T00:10:48;24.50;99.90
285;DHT22;127;48.770;9.212;2023-08-21T00:13:17;24.50;99.90
285;DHT22;127;48.770;9.212;2023-08-21T00:15:46;24.50;99.90
285;DHT22;127;48.770;9.212;2023-08-21T00:18:17;24.50;99.90
285;DHT22;127;48.770;9.212;2023-08-21T00:20:46;24.50;99.90
285;DHT22;127;48.770;9.212;2023-08-21T00:23:15;24.50;99.90
285;DHT22;127;48.770;9.212;2023-08-21T00:25:46;24.60;99.90
285;DHT22;127;48.770;9.212;2023-08-21T00:28:15;24.60;99.90
285;DHT22;127;48.770;9.212;2023-08-21T00:30:44;24.60;99.90
285;DHT22;127;48.770;9.212;2023-08-21T00:33:12;24.60;99.90
285;DHT22;127;48.770;9.212;2023-08-21T00:35:44;24.60;99.90
285;DHT22;127;48.770;9.212;2023-08-21T00:38:16;24.50;99.90
285;DHT22;127;48.770;9.212;2023-08-21T00:40:45;24.50;99.90
285;DHT22;127;48.770;9.212;2023-08-21T00:43:13;24.40;99.90
285;DHT22;127;48.770;9.212;2023-08-21T00:45:44;24.40;99.90
285;DHT22;127;48.770;9.212;2023-08-21T00:48:14;24.40;99.90
285;DHT22;127;48.770;9.212;2023-08-21T00:50:45;24.30;99.90
285;DHT22;127;48.770;9.212;2023-08-21T00:53:14;24.30;99.90
285;DHT22;127;48.770;9.212;2023-08-21T00:55:43;24.20;99.90
285;DHT22;127;48.770;9.212;2023-08-21T00:58:14;24.10;99.90
285;DHT22;127;48.770;9.212;2023-08-21T01:00:45;24.10;99.90
285;DHT22;127;48.770;9.212;2023-08-21T01:03:15;24.80;99.90
285;DHT22;127;48.770;9.212;2023-08-21T01:12:16;23.80;99.90
285;DHT22;127;48.770;9.212;2023-08-21T01:14:53;23.80;99.90
285;DHT22;127;48.770;9.212;2023-08-21T01:17:24;23.70;99.90
285;DHT22;127;48.770;9.212;2023-08-21T01:19:54;23.60;99.90
285;DHT22;127;48.770;9.212;2023-08-21T01:22:26;23.60;99.90
285;DHT22;127;48.770;9.212;2023-08-21T01:24:57;23.50;99.90
285;DHT22;127;48.770;9.212;2023-08-21T01:27:27;23.40;99.90
285;DHT22;127;48.770;9.212;2023-08-21T01:29:56;23.40;99.90
285;DHT22;127;48.770;9.212;2023-08-21T01:35:21;23.40;99.90
285;DHT22;127;48.770;9.212;2023-08-21T01:37:51;23.30;99.90
285;DHT22;127;48.770;9.212;2023-08-21T01:40:23;23.30;99.90
285;DHT22;127;48.770;9.212;2023-08-21T01:42:53;23.30;99.90
285;DHT22;127;48.770;9.212;2023-08-21T01:45:22;23.20;99.90
285;DHT22;127;48.770;9.212;2023-08-21T01:47:51;23.20;99.90
285;DHT22;127;48.770;9.212;2023-08-21T01:50:19;23.10;99.90
285;DHT22;127;48.770;9.212;2023-08-21T01:52:50;23.10;99.90
285;DHT22;127;48.770;9.212;2023-08-21T01:55:19;23.10;99.90
285;DHT22;127;48.770;9.212;2023-08-21T01:57:50;23.10;99.90
285;DHT22;127;48.770;9.212;2023-08-21T02:00:20;23.10;99.90
285;DHT22;127;48.770;9.212;2023-08-21T02:02:49;23.10;99.90
285;DHT22;127;48.770;9.212;2023-08-21T02:05:19;23.00;99.90
285;DHT22;127;48.770;9.212;2023-08-21T02:07:48;23.00;99.90
285;DHT22;127;48.770;9.212;2023-08-21T02:10:17;23.00;99.90
285;DHT22;127;48.770;9.212;2023-08-21T02:12:49;23.00;99.90
285;DHT22;127;48.770;9.212;2023-08-21T02:15:19;22.90;99.90
285;DHT22;127;48.770;9.212;2023-08-21T02:17:50;22.90;99.90
285;DHT22;127;48.770;9.212;2023-08-21T02:20:20;22.80;99.90
285;DHT22;127;48.770;9.212;2023-08-21T02:22:48;22.80;99.90
285;DHT22;127;48.770;9.212;2023-08-21T02:25:17;22.80;99.90
285;DHT22;127;48.770;9.212;2023-08-21T02:27:48;22.80;99.90
285;DHT22;127;48.770;9.212;2023-08-21T02:30:17;22.70;99.90
285;DHT22;127;48.770;9.212;2023-08-21T02:32:46;22.70;99.90
285;DHT22;127;48.770;9.212;2023-08-21T02:35:15;22.70;99.90
285;DHT22;127;48.770;9.212;2023-08-21T02:37:43;22.60;99.90
285;DHT22;127;48.770;9.212;2023-08-21T02:40:15;22.60;99.90
285;DHT22;127;48.770;9.212;2023-08-21T02:42:49;22.50;99.90
285;DHT22;127;48.770;9.212;2023-08-21T02:45:18;22.50;99.90
285;DHT22;127;48.770;9.212;2023-08-21T02:47:47;22.50;99.90
285;DHT22;127;48.770;9.212;2023-08-21T02:50:15;22.50;99.90
285;DHT22;127;48.770;9.212;2023-08-21T02:52:44;22.50;99.90
285;DHT22;127;48.770;9.212;2023-08-21T02:55:13;22.40;99.90
285;DHT22;127;48.770;9.212;2023-08-21T02:57:42;22.40;99.90
285;DHT22;127;48.770;9.212;2023-08-21T03:00:14;22.40;99.90
285;DHT22;127;48.770;9.212;2023-08-21T03:02:42;22.40;99.90
285;DHT22;127;48.770;9.212;2023-08-21T03:05:11;22.30;99.90
285;DHT22;127;48.770;9.212;2023-08-21T03:07:40;22.30;99.90
285;DHT22;127;48.770;9.212;2023-08-21T03:10:09;22.30;99.90
285;DHT22;127;48.770;9.212;2023-08-21T03:12:38;22.20;99.90
285;DHT22;127;48.770;9.212;2023-08-21T03:15:07;22.20;99.90
285;DHT22;127;48.770;9.212;2023-08-21T03:17:38;22.20;99.90
285;DHT22;127;48.770;9.212;2023-08-21T03:20:11;22.20;99.90
285;DHT22;127;48.770;9.212;2023-08-21T03:22:40;22.20;99.90
285;DHT22;127;48.770;9.212;2023-08-21T03:25:12;22.10;99.90
285;DHT22;127;48.770;9.212;2023-08-21T03:27:40;22.10;99.90
285;DHT22;127;48.770;9.212;2023-08-21T03:30:11;22.10;99.90
285;DHT22;127;48.770;9.212;2023-08-21T03:32:43;22.10;99.90
285;DHT22;127;48.770;9.212;2023-08-21T03:35:12;22.10;99.90
285;DHT22;127;48.770;9.212;2023-08-21T03:37:40;22.00;99.90
285;DHT22;127;48.770;9.212;2023-08-21T03:40:10;22.00;99.90
285;DHT22;127;48.770;9.212;2023-08-21T03:42:38;22.00;99.90
285;DHT22;127;48.770;9.212;2023-08-21T03:45:11;22.00;99.90
285;DHT22;127;48.770;9.212;2023-08-21T03:47:42;21.90;99.90
285;DHT22;127;48.770;9.212;2023-08-21T03:50:14;22.00;99.90
285;DHT22;127;48.770;9.212;2023-08-21T03:52:42;21.90;99.90
285;DHT22;127;48.770;9.212;2023-08-21T03:55:11;21.90;99.90
285;DHT22;127;48.770;9.212;2023-08-21T03:57:40;21.90;99.90
285;DHT22;127;48.770;9.212;2023-08-21T04:00:09;21.80;99.90
285;DHT22;127;48.770;9.212;2023-08-21T04:02:38;21.80;99.90
285;DHT22;127;48.770;9.212;2023-08-21T04:05:10;21.80;99.90
285;DHT22;127;48.770;9.212;2023-08-21T04:07:38;21.80;99.90
285;DHT22;127;48.770;9.212;2023-08-21T04:10:08;21.80;99.90
285;DHT22;127;48.770;9.212;2023-08-21T04:12:37;21.80;99.90
285;DHT22;127;48.770;9.212;2023-08-21T04:15:06;21.70;99.90
285;DHT22;127;48.770;9.212;2023-08-21T04:17:35;21.70;99.90
285;DHT22;127;48.770;9.212;2023-08-21T04:20:11;21.70;99.90
285;DHT22;127;48.770;9.212;2023-08-21T04:22:39;21.70;99.90
285;DHT22;127;48.770;9.212;2023-08-21T04:25:08;21.70;99.90
285;DHT22;127;48.770;9.212;2023-08-21T04:27:37;21.70;99.90
285;DHT22;127;48.770;9.212;2023-08-21T04:30:07;21.70;99.90
285;DHT22;127;48.770;9.212;2023-08-21T04:32:35;21.70;99.90
285;DHT22;127;48.770;9.212;2023-08-21T04:35:05;21.70;99.90
285;DHT22;127;48.770;9.212;2023-08-21T04:37:38;21.70;99.90
285;DHT22;127;48.770;9.212;2023-08-21T04:40:13;21.70;99.90
285;DHT22;127;48.770;9.212;2023-08-21T04:42:43;21.20;99.90
285;DHT22;127;48.770;9.212;2023-08-21T04:45:12;21.70;99.90
285;DHT22;127;48.770;9.212;2023-08-21T04:47:41;21.70;99.90
285;DHT22;127;48.770;9.212;2023-08-21T04:50:09;21.70;99.90
285;DHT22;127;48.770;9.212;2023-08-21T04:52:41;21.70;99.90
285;DHT22;127;48.770;9.212;2023-08-21T04:55:09;21.70;99.90
285;DHT22;127;48.770;9.212;2023-08-21T04:57:38;21.70;99.90
285;DHT22;127;48.770;9.212;2023-08-21T05:00:08;21.70;99.90
285;DHT22;127;48.770;9.212;2023-08-21T05:05:54;21.80;99.90
285;DHT22;127;48.770;9.212;2023-08-21T05:08:31;21.70;99.90
285;DHT22;127;48.770;9.212;2023-08-21T05:11:00;21.80;99.90
285;DHT22;127;48.770;9.212;2023-08-21T05:13:29;21.70;99.90
285;DHT22;127;48.770;9.212;2023-08-21T05:15:58;21.90;99.90
285;DHT22;127;48.770;9.212;2023-08-21T05:18:27;21.80;99.90
285;DHT22;127;48.770;9.212;2023-08-21T05:20:56;21.90;99.90
285;DHT22;127;48.770;9.212;2023-08-21T05:23:27;21.90;99.90
285;DHT22;127;48.770;9.212;2023-08-21T05:25:56;21.90;99.90
285;DHT22;127;48.770;9.212;2023-08-21T05:28:24;21.90;99.90
285;DHT22;127;48.770;9.212;2023-08-21T05:30:53;22.00;99.90
285;DHT22;127;48.770;9.212;2023-08-21T05:33:22;22.00;99.90
285;DHT22;127;48.770;9.212;2023-08-21T05:35:50;22.10;99.90
285;DHT22;127;48.770;9.212;2023-08-21T05:38:21;22.20;99.90
285;DHT22;127;48.770;9.212;2023-08-21T05:40:52;22.20;99.90
285;DHT22;127;48.770;9.212;2023-08-21T05:43:24;22.20;99.90
285;DHT22;127;48.770;9.212;2023-08-21T05:45:57;22.30;99.90
285;DHT22;127;48.770;9.212;2023-08-21T05:48:26;22.30;99.90
285;DHT22;127;48.770;9.212;2023-08-21T05:50:55;22.40;99.90
285;DHT22;127;48.770;9.212;2023-08-21T05:53:37;22.40;99.90
285;DHT22;127;48.770;9.212;2023-08-21T05:56:16;22.50;99.90
285;DHT22;127;48.770;9.212;2023-08-21T05:58:45;22.50;99.90
285;DHT22;127;48.770;9.212;2023-08-21T06:04:08;22.70;99.90
285;DHT22;127;48.770;9.212;2023-08-21T06:06:41;22.80;99.90
285;DHT22;127;48.770;9.212;2023-08-21T06:09:34;22.80;99.90
285;DHT22;127;48.770;9.212;2023-08-21T06:15:48;23.00;99.90
285;DHT22;127;48.770;9.212;2023-08-21T06:18:21;23.00;99.90
285;DHT22;127;48.770;9.212;2023-08-21T06:21:07;23.00;99.90
285;DHT22;127;48.770;9.212;2023-08-21T06:23:53;23.10;99.90
285;DHT22;127;48.770;9.212;2023-08-21T06:26:32;23.20;99.90
285;DHT22;127;48.770;9.212;2023-08-21T06:29:07;23.20;99.90
285;DHT22;127;48.770;9.212;2023-08-21T06:31:36;23.20;99.90
285;DHT22;127;48.770;9.212;2023-08-21T06:34:05;23.30;99.90
285;DHT22;127;48.770;9.212;2023-08-21T06:36:38;23.40;99.90
285;DHT22;127;48.770;9.212;2023-08-21T06:39:06;23.40;99.90
285;DHT22;127;48.770;9.212;2023-08-21T06:41:37;23.60;99.90
285;DHT22;127;48.770;9.212;2023-08-21T06:44:09;23.60;99.90
285;DHT22;127;48.770;9.212;2023-08-21T06:46:44;23.80;99.90
285;DHT22;127;48.770;9.212;2023-08-21T06:49:27;23.80;99.90
285;DHT22;127;48.770;9.212;2023-08-21T06:51:59;24.00;99.90
285;DHT22;127;48.770;9.212;2023-08-21T06:54:29;24.00;99.90
285;DHT22;127;48.770;9.212;2023-08-21T06:57:00;24.00;99.90
285;DHT22;127;48.770;9.212;2023-08-21T06:59:32;24.20;99.90
285;DHT22;127;48.770;9.212;2023-08-21T07:02:05;24.30;99.90
285;DHT22;127;48.770;9.212;2023-08-21T07:04:45;24.50;99.90
285;DHT22;127;48.770;9.212;2023-08-21T07:07:14;24.60;99.90
285;DHT22;127;48.770;9.212;2023-08-21T07:09:43;24.70;99.90
285;DHT22;127;48.770;9.212;2023-08-21T07:12:11;24.70;99.90
285;DHT22;127;48.770;9.212;2023-08-21T07:14:45;25.00;99.90
285;DHT22;127;48.770;9.212;2023-08-21T07:17:20;25.10;99.90
285;DHT22;127;48.770;9.212;2023-08-21T07:19:50;25.20;99.90
285;DHT22;127;48.770;9.212;2023-08-21T07:22:21;24.90;99.90
285;DHT22;127;48.770;9.212;2023-08-21T07:24:52;25.50;99.90
285;DHT22;127;48.770;9.212;2023-08-21T07:27:24;25.50;99.90
285;DHT22;127;48.770;9.212;2023-08-21T07:30:20;25.60;99.90
285;DHT22;127;48.770;9.212;2023-08-21T07:32:53;25.80;99.90
285;DHT22;127;48.770;9.212;2023-08-21T07:35:53;25.60;99.90
285;DHT22;127;48.770;9.212;2023-08-21T07:38:27;26.20;99.90
285;DHT22;127;48.770;9.212;2023-08-21T07:41:23;26.10;99.90
285;DHT22;127;48.770;9.212;2023-08-21T07:44:00;26.40;99.90
285;DHT22;127;48.770;9.212;2023-08-21T07:46:40;26.40;99.90
285;DHT22;127;48.770;9.212;2023-08-21T07:49:35;26.50;99.90
285;DHT22;127;48.770;9.212;2023-08-21T07:52:15;26.60;99.90
285;DHT22;127;48.770;9.212;2023-08-21T07:54:46;26.90;99.90
285;DHT22;127;48.770;9.212;2023-08-21T07:57:15;27.10;99.90
285;DHT22;127;48.770;9.212;2023-08-21T07:59:43;27.20;99.90
285;DHT22;127;48.770;9.212;2023-08-21T08:02:15;27.30;99.90
285;DHT22;127;48.770;9.212;2023-08-21T08:05:02;27.50;99.90
285;DHT22;127;48.770;9.212;2023-08-21T08:08:01;27.70;99.90
285;DHT22;127;48.770;9.212;2023-08-21T08:10:39;27.80;99.90
285;DHT22;127;48.770;9.212;2023-08-21T08:13:10;28.20;99.90
285;DHT22;127;48.770;9.212;2023-08-21T08:16:04;28.30;99.90
285;DHT22;127;48.770;9.212;2023-08-21T08:18:40;28.70;99.90
285;DHT22;127;48.770;9.212;2023-08-21T08:21:11;29.40;99.90
285;DHT22;127;48.770;9.212;2023-08-21T08:24:03;29.60;99.90
285;DHT22;127;48.770;9.212;2023-08-21T08:26:33;30.90;99.90
285;DHT22;127;48.770;9.212;2023-08-21T08:29:09;31.70;99.90
285;DHT22;127;48.770;9.212;2023-08-21T08:31:38;32.40;99.90
285;DHT22;127;48.770;9.212;2023-08-21T08:34:10;32.80;99.90
285;DHT22;127;48.770;9.212;2023-08-21T08:36:39;33.70;99.90
285;DHT22;127;48.770;9.212;2023-08-21T08:39:09;35.00;99.90
285;DHT22;127;48.770;9.212;2023-08-21T08:41:42;36.00;99.90
285;DHT22;127;48.770;9.212;2023-08-21T08:44:13;35.30;99.90
285;DHT22;127;48.770;9.212;2023-08-21T08:46:44;35.40;99.90
285;DHT22;127;48.770;9.212;2023-08-21T08:49:18;36.10;99.90
285;DHT22;127;48.770;9.212;2023-08-21T08:51:49;36.00;99.90
285;DHT22;127;48.770;9.212;2023-08-21T08:54:23;35.70;99.90
285;DHT22;127;48.770;9.212;2023-08-21T08:56:53;35.80;99.90
285;DHT22;127;48.770;9.212;2023-08-21T08:59:23;36.10;99.90
285;DHT22;127;48.770;9.212;2023-08-21T09:01:56;36.40;99.90
285;DHT22;127;48.770;9.212;2023-08-21T09:04:27;36.70;99.90
285;DHT22;127;48.770;9.212;2023-08-21T09:07:07;36.80;99.90
285;DHT22;127;48.770;9.212;2023-08-21T09:09:40;36.20;99.90
285;DHT22;127;48.770;9.212;2023-08-21T09:12:14;37.90;99.90
285;DHT22;127;48.770;9.212;2023-08-21T09:14:46;38.20;99.90
285;DHT22;127;48.770;9.212;2023-08-21T09:17:34;38.40;99.90
285;DHT22;127;48.770;9.212;2023-08-21T09:20:16;38.30;99.90
285;DHT22;127;48.770;9.212;2023-08-21T09:22:56;39.30;99.90
285;DHT22;127;48.770;9.212;2023-08-21T09:25:25;39.00;99.90
285;DHT22;127;48.770;9.212;2023-08-21T09:27:56;39.60;99.90
285;DHT22;127;48.770;9.212;2023-08-21T09:30:31;40.10;99.90
285;DHT22;127;48.770;9.212;2023-08-21T09:33:17;41.10;99.90
285;DHT22;127;48.770;9.212;2023-08-21T09:35:51;41.60;99.90
285;DHT22;127;48.770;9.212;2023-08-21T09:38:20;39.30;99.90
285;DHT22;127;48.770;9.212;2023-08-21T09:40:53;40.00;99.90
285;DHT22;127;48.770;9.212;2023-08-21T09:43:28;39.20;99.90
285;DHT22;127;48.770;9.212;2023-08-21T09:46:01;38.90;99.90
285;DHT22;127;48.770;9.212;2023-08-21T09:48:30;40.30;99.90
285;DHT22;127;48.770;9.212;2023-08-21T09:51:07;41.30;99.90
285;DHT22;127;48.770;9.212;2023-08-21T09:53:37;41.10;99.90
285;DHT22;127;48.770;9.212;2023-08-21T09:56:06;41.40;99.90
285;DHT22;127;48.770;9.212;2023-08-21T09:58:37;41.90;99.90
285;DHT22;127;48.770;9.212;2023-08-21T10:01:07;42.60;99.90
285;DHT22;127;48.770;9.212;2023-08-21T10:03:40;43.10;99.90
285;DHT22;127;48.770;9.212;2023-08-21T10:06:19;42.40;99.90
285;DHT22;127;48.770;9.212;2023-08-21T10:08:53;41.70;99.90
285;DHT22;127;48.770;9.212;2023-08-21T10:11:25;41.40;99.90
285;DHT22;127;48.770;9.212;2023-08-21T10:13:56;41.20;99.90
285;DHT22;127;48.770;9.212;2023-08-21T10:16:25;40.50;99.90
285;DHT22;127;48.770;9.212;2023-08-21T10:19:03;40.70;99.90
285;DHT22;127;48.770;9.212;2023-08-21T10:21:41;41.10;99.90
285;DHT22;127;48.770;9.212;2023-08-21T10:24:32;41.90;99.90
285;DHT22;127;48.770;9.212;2023-08-21T10:32:48;42.40;99.90
285;DHT22;127;48.770;9.212;2023-08-21T10:49:07;40.30;99.90
285;DHT22;127;48.770;9.212;2023-08-21T10:51:21;42.10;99.90
285;DHT22;127;48.770;9.212;2023-08-21T10:54:10;43.50;99.90
285;DHT22;127;48.770;9.212;2023-08-21T10:56:52;42.60;99.90
285;DHT22;127;48.770;9.212;2023-08-21T10:59:41;43.40;99.90
285;DHT22;127;48.770;9.212;2023-08-21T11:02:19;43.40;99.90
285;DHT22;127;48.770;9.212;2023-08-21T11:04:56;43.80;99.90
285;DHT22;127;48.770;9.212;2023-08-21T11:07:29;42.70;99.90
285;DHT22;127;48.770;9.212;2023-08-21T11:10:22;44.20;99.90
285;DHT22;127;48.770;9.212;2023-08-21T11:18:12;43.10;99.90
285;DHT22;127;48.770;9.212;2023-08-21T11:20:45;44.10;99.90
285;DHT22;127;48.770;9.212;2023-08-21T11:26:14;41.40;99.90
285;DHT22;127;48.770;9.212;2023-08-21T11:46:53;43.90;97.90
285;DHT22;127;48.770;9.212;2023-08-21T11:49:34;45.30;95.20
285;DHT22;127;48.770;9.212;2023-08-21T11:52:35;44.40;97.00
285;DHT22;127;48.770;9.212;2023-08-21T12:03:08;43.50;94.90
285;DHT22;127;48.770;9.212;2023-08-21T12:39:28;42.80;93.50
285;DHT22;127;48.770;9.212;2023-08-21T12:41:59;43.00;94.00
285;DHT22;127;48.770;9.212;2023-08-21T12:44:28;42.70;96.50
285;DHT22;127;48.770;9.212;2023-08-21T12:46:58;43.70;92.70
285;DHT22;127;48.770;9.212;2023-08-21T12:49:29;44.10;90.00
285;DHT22;127;48.770;9.212;2023-08-21T12:52:01;44.30;84.60
285;DHT22;127;48.770;9.212;2023-08-21T12:54:33;43.70;90.90
285;DHT22;127;48.770;9.212;2023-08-21T12:57:01;43.50;88.10
285;DHT22;127;48.770;9.212;2023-08-21T12:59:31;43.70;89.20
285;DHT22;127;48.770;9.212;2023-08-21T13:02:00;43.90;87.90
285;DHT22;127;48.770;9.212;2023-08-21T13:04:32;44.30;79.40
285;DHT22;127;48.770;9.212;2023-08-21T13:07:08;44.00;80.60
285;DHT22;127;48.770;9.212;2023-08-21T13:09:41;45.10;66.50
285;DHT22;127;48.770;9.212;2023-08-21T13:12:09;45.50;77.90
285;DHT22;127;48.770;9.212;2023-08-21T13:14:44;45.80;66.90
285;DHT22;127;48.770;9.212;2023-08-21T13:17:19;42.30;88.00
285;DHT22;127;48.770;9.212;2023-08-21T13:19:49;41.60;90.20
285;DHT22;127;48.770;9.212;2023-08-21T13:22:24;40.10;97.10
285;DHT22;127;48.770;9.212;2023-08-21T13:24:58;39.30;96.30
285;DHT22;127;48.770;9.212;2023-08-21T13:27:26;38.30;96.60
285;DHT22;127;48.770;9.212;2023-08-21T13:29:55;37.20;99.90
285;DHT22;127;48.770;9.212;2023-08-21T13:32:24;36.70;99.90
285;DHT22;127;48.770;9.212;2023-08-21T13:34:56;36.90;99.90
285;DHT22;127;48.770;9.212;2023-08-21T13:37:28;37.40;99.90
285;DHT22;127;48.770;9.212;2023-08-21T13:40:02;38.20;99.90
285;DHT22;127;48.770;9.212;2023-08-21T13:42:43;38.60;99.60
285;DHT22;127;48.770;9.212;2023-08-21T13:45:17;40.20;98.50
285;DHT22;127;48.770;9.212;2023-08-21T13:47:46;41.30;99.10
285;DHT22;127;48.770;9.212;2023-08-21T13:50:18;39.60;98.80
285;DHT22;127;48.770;9.212;2023-08-21T13:52:49;38.50;99.90
285;DHT22;127;48.770;9.212;2023-08-21T13:55:21;38.10;99.90
285;DHT22;127;48.770;9.212;2023-08-21T13:57:49;37.40;99.90
285;DHT22;127;48.770;9.212;2023-08-21T14:00:18;37.20;99.90
285;DHT22;127;48.770;9.212;2023-08-21T14:02:47;36.40;99.90
285;DHT22;127;48.770;9.212;2023-08-21T14:05:19;36.30;99.90
285;DHT22;127;48.770;9.212;2023-08-21T14:07:52;36.40;99.90
285;DHT22;127;48.770;9.212;2023-08-21T14:10:25;35.80;99.90
285;DHT22;127;48.770;9.212;2023-08-21T14:12:55;35.70;99.90
285;DHT22;127;48.770;9.212;2023-08-21T14:15:24;35.50;99.90
285;DHT22;127;48.770;9.212;2023-08-21T14:17:53;36.10;99.90
285;DHT22;127;48.770;9.212;2023-08-21T14:20:49;35.80;99.90
285;DHT22;127;48.770;9.212;2023-08-21T14:23:19;35.60;99.90
285;DHT22;127;48.770;9.212;2023-08-21T14:25:53;36.30;99.90
285;DHT22;127;48.770;9.212;2023-08-21T14:28:22;36.80;99.90
285;DHT22;127;48.770;9.212;2023-08-21T14:30:50;37.20;99.90
285;DHT22;127;48.770;9.212;2023-08-21T14:33:24;37.00;99.90
285;DHT22;127;48.770;9.212;2023-08-21T14:35:53;37.30;99.90
285;DHT22;127;48.770;9.212;2023-08-21T14:38:22;38.70;99.90
285;DHT22;127;48.770;9.212;2023-08-21T14:40:55;39.50;99.90
285;DHT22;127;48.770;9.212;2023-08-21T14:43:26;40.10;99.90
285;DHT22;127;48.770;9.212;2023-08-21T14:45:59;39.80;99.90
285;DHT22;127;48.770;9.212;2023-08-21T14:48:34;40.30;99.90
285;DHT22;127;48.770;9.212;2023-08-21T14:51:07;41.30;97.20
285;DHT22;127;48.770;9.212;2023-08-21T14:53:38;41.90;95.20
285;DHT22;127;48.770;9.212;2023-08-21T14:56:19;42.10;96.00
285;DHT22;127;48.770;9.212;2023-08-21T14:58:48;42.30;94.50
285;DHT22;127;48.770;9.212;2023-08-21T15:01:32;42.00;93.00
285;DHT22;127;48.770;9.212;2023-08-21T15:04:01;41.40;95.80
285;DHT22;127;48.770;9.212;2023-08-21T15:06:31;41.60;95.90
285;DHT22;127;48.770;9.212;2023-08-21T15:09:00;41.60;95.10
285;DHT22;127;48.770;9.212;2023-08-21T15:11:33;40.70;94.40
285;DHT22;127;48.770;9.212;2023-08-21T15:14:02;41.00;93.20
285;DHT22;127;48.770;9.212;2023-08-21T15:16:31;41.60;91.80
285;DHT22;127;48.770;9.212;2023-08-21T15:19:00;41.80;91.60
285;DHT22;127;48.770;9.212;2023-08-21T15:21:34;41.70;91.00
285;DHT22;127;48.770;9.212;2023-08-21T15:24:08;41.20;91.90
285;DHT22;127;48.770;9.212;2023-08-21T15:26:41;41.00;91.90
285;DHT22;127;48.770;9.212;2023-08-21T15:29:13;40.40;93.30
285;DHT22;127;48.770;9.212;2023-08-21T15:31:41;39.80;94.90
285;DHT22;127;48.770;9.212;2023-08-21T15:34:13;39.20;95.80
285;DHT22;127;48.770;9.212;2023-08-21T15:36:44;38.70;97.00
285;DHT22;127;48.770;9.212;2023-08-21T15:39:14;38.40;99.10
285;DHT22;127;48.770;9.212;2023-08-21T15:41:45;38.90;99.90
285;DHT22;127;48.770;9.212;2023-08-21T15:44:16;39.20;98.90
285;DHT22;127;48.770;9.212;2023-08-21T15:46:45;39.10;99.60
285;DHT22;127;48.770;9.212;2023-08-21T15:49:13;39.00;98.70
285;DHT22;127;48.770;9.212;2023-08-21T15:51:43;39.40;97.70
285;DHT22;127;48.770;9.212;2023-08-21T15:54:13;38.90;98.10
285;DHT22;127;48.770;9.212;2023-08-21T15:56:45;38.60;99.40
285;DHT22;127;48.770;9.212;2023-08-21T15:59:21;38.70;98.50
285;DHT22;127;48.770;9.212;2023-08-21T16:01:49;38.30;99.90
285;DHT22;127;48.770;9.212;2023-08-21T16:04:23;38.60;99.50
285;DHT22;127;48.770;9.212;2023-08-21T16:06:58;38.90;99.00
285;DHT22;127;48.770;9.212;2023-08-21T16:09:27;39.20;99.90
285;DHT22;127;48.770;9.212;2023-08-21T16:11:58;39.50;97.70
285;DHT22;127;48.770;9.212;2023-08-21T16:14:30;38.90;99.60
285;DHT22;127;48.770;9.212;2023-08-21T16:17:04;37.90;99.90
285;DHT22;127;48.770;9.212;2023-08-21T16:22:27;38.60;99.50
285;DHT22;127;48.770;9.212;2023-08-21T16:24:59;37.80;99.90
285;DHT22;127;48.770;9.212;2023-08-21T16:27:33;38.00;99.90
285;DHT22;127;48.770;9.212;2023-08-21T16:30:06;38.00;99.90
285;DHT22;127;48.770;9.212;2023-08-21T16:32:35;38.20;99.90
285;DHT22;127;48.770;9.212;2023-08-21T16:35:08;38.10;99.90
285;DHT22;127;48.770;9.212;2023-08-21T16:38:41;37.50;99.90
285;DHT22;127;48.770;9.212;2023-08-21T16:41:19;37.30;99.90
285;DHT22;127;48.770;9.212;2023-08-21T16:44:31;37.60;99.90
285;DHT22;127;48.770;9.212;2023-08-21T16:47:03;37.20;99.90
285;DHT22;127;48.770;9.212;2023-08-21T16:49:33;37.00;99.90
285;DHT22;127;48.770;9.212;2023-08-21T16:52:03;36.80;99.90
285;DHT22;127;48.770;9.212;2023-08-21T16:54:34;36.70;99.90
285;DHT22;127;48.770;9.212;2023-08-21T16:57:03;37.00;99.90
285;DHT22;127;48.770;9.212;2023-08-21T16:59:34;37.00;99.90
285;DHT22;127;48.770;9.212;2023-08-21T17:02:03;36.60;99.90
285;DHT22;127;48.770;9.212;2023-08-21T17:04:35;36.40;99.90
285;DHT22;127;48.770;9.212;2023-08-21T17:07:05;36.30;99.90
285;DHT22;127;48.770;9.212;2023-08-21T17:09:33;35.90;99.90
285;DHT22;127;48.770;9.212;2023-08-21T17:12:06;35.20;99.90
285;DHT22;127;48.770;9.212;2023-08-21T17:14:39;35.10;99.90
285;DHT22;127;48.770;9.212;2023-08-21T17:17:08;35.00;99.90
285;DHT22;127;48.770;9.212;2023-08-21T17:19:38;34.40;99.90
285;DHT22;127;48.770;9.212;2023-08-21T17:22:07;34.40;99.90
285;DHT22;127;48.770;9.212;2023-08-21T17:24:35;34.50;99.90
285;DHT22;127;48.770;9.212;2023-08-21T17:27:07;34.50;99.90
285;DHT22;127;48.770;9.212;2023-08-21T17:29:35;34.50;99.90
285;DHT22;127;48.770;9.212;2023-08-21T17:32:15;34.00;99.90
285;DHT22;127;48.770;9.212;2023-08-21T17:34:44;33.70;99.90
285;DHT22;127;48.770;9.212;2023-08-21T17:37:12;33.70;99.90
285;DHT22;127;48.770;9.212;2023-08-21T17:39:42;34.00;99.90
285;DHT22;127;48.770;9.212;2023-08-21T17:42:11;33.70;99.90
285;DHT22;127;48.770;9.212;2023-08-21T17:44:42;33.60;99.90
285;DHT22;127;48.770;9.212;2023-08-21T17:47:16;33.50;99.90
285;DHT22;127;48.770;9.212;2023-08-21T17:49:45;33.20;99.90
285;DHT22;127;48.770;9.212;2023-08-21T17:52:14;33.00;99.90
285;DHT22;127;48.770;9.212;2023-08-21T17:54:42;32.80;99.90
285;DHT22;127;48.770;9.212;2023-08-21T17:57:14;31.90;99.90
285;DHT22;127;48.770;9.212;2023-08-21T17:59:48;31.80;99.90
285;DHT22;127;48.770;9.212;2023-08-21T18:02:20;31.50;99.90
285;DHT22;127;48.770;9.212;2023-08-21T18:04:49;31.50;99.90
285;DHT22;127;48.770;9.212;2023-08-21T18:07:21;31.50;99.90
285;DHT22;127;48.770;9.212;2023-08-21T18:09:53;31.20;99.90
285;DHT22;127;48.770;9.212;2023-08-21T18:12:24;30.80;99.90
285;DHT22;127;48.770;9.212;2023-08-21T18:14:53;30.50;99.90
285;DHT22;127;48.770;9.212;2023-08-21T18:17:31;30.30;99.90
285;DHT22;127;48.770;9.212;2023-08-21T18:20:00;30.00;99.90
285;DHT22;127;48.770;9.212;2023-08-21T18:22:31;29.70;99.90
285;DHT22;127;48.770;9.212;2023-08-21T18:25:00;29.50;99.90
285;DHT22;127;48.770;9.212;2023-08-21T18:27:30;29.30;99.90
285;DHT22;127;48.770;9.212;2023-08-21T18:29:58;29.30;99.90
285;DHT22;127;48.770;9.212;2023-08-21T18:32:32;29.10;99.90
285;DHT22;127;48.770;9.212;2023-08-21T18:35:01;28.90;99.90
285;DHT22;127;48.770;9.212;2023-08-21T18:37:32;28.70;99.90
285;DHT22;127;48.770;9.212;2023-08-21T18:40:02;28.60;99.90
285;DHT22;127;48.770;9.212;2023-08-21T18:42:31;28.50;99.90
285;DHT22;127;48.770;9.212;2023-08-21T18:45:04;28.40;99.90
285;DHT22;127;48.770;9.212;2023-08-21T18:47:36;28.40;99.90
285;DHT22;127;48.770;9.212;2023-08-21T18:50:05;28.20;99.90
285;DHT22;127;48.770;9.212;2023-08-21T18:52:34;28.20;99.90
285;DHT22;127;48.770;9.212;2023-08-21T18:55:05;28.20;99.90
285;DHT22;127;48.770;9.212;2023-08-21T18:57:34;28.00;99.90